Time;durP1;ratioP1;P1;durP2;ratioP2;P2;SDS_P1;SDS_P2;PMS_P1;PMS_P2;Temp;Humidity;BMP_temperature;BMP_pressure;BME280_temperature;BME280_humidity;BME280_pressure;Samples;Min_cycle;Max_cycle;Signal;HPM_P1;HPM_P2
2023/11/14 00:01:06;;;;;;;;;;;;;;;;;;2192471;67;4064;-25
2023/11/14 00:03:37;;;;;;;;;;;;;;;;;;2192899;59;2317;-25
2023/11/14 00:06:08;;;;;;;;;;;;;;;;;;2194859;67;4185;-25
2023/11/14 00:08:39;;;;;;;;;;;;;;;;;;2197394;67;1918;-25
2023/11/14 00:11:10;;;;;;;;;;;;;;;;;;2195284;67;4307;-25
2023/11/14 00:13:40;;;;;;;;;;;;;;;;;;2201134;67;2425;-25
2023/11/14 00:16:11;;;;;;;;;;;;;;;;;;2191349;67;2830;-25
2023/11/14 00:18:41;;;;;;;;;;;;;;;;;;2195987;67;2566;-25
2023/11/14 00:21:12;;;;;;;;;;;;;;;;;;2194631;59;4112;-25
2023/11/14 00:23:42;;;;;;;;;;;;;;;;;;2196061;67;2643;-25
2023/11/14 00:26:12;;;;;;;;;;;;;;;;;;2195082;59;2810;-25
2023/11/14 00:28:42;;;;;;;;;;;;;;;;;;2195014;59;3615;-25
2023/11/14 00:31:13;;;;;;;;;;;;;;;;;;2192636;67;3851;-23
2023/11/14 00:33:43;;;;;;;;;;;;;;;;;;2196176;59;3999;-24
2023/11/14 00:36:13;;;;;;;;;;;;;;;;;;2193017;59;2048;-24
2023/11/14 00:38:43;;;;;;;;;;;;;;;;;;2193567;59;2108;-24
2023/11/14 00:41:14;;;;;;;;;;;;;;;;;;2193668;59;2762;-24
2023/11/14 00:43:44;;;;;;;;;;;;;;;;;;2195852;59;3141;-25
2023/11/14 00:46:14;;;;;;;;;;;;;;;;;;2200595;67;3715;-24
2023/11/14 00:48:46;;;;;;;;;;;;;;;;;;2194569;67;2655;-25
2023/11/14 00:51:16;;;;;;;;;;;;;;;;;;2193418;59;2369;-25
2023/11/14 00:53:50;;;;;;;;;;;;;;;;;;2194316;67;4342;-25
2023/11/14 00:56:21;;;;;;;;;;;;;;;;;;2201447;67;2349;-25
2023/11/14 00:58:52;;;;;;;;;;;;;;;;;;2195350;59;2629;-25
2023/11/14 01:01:22;;;;;;;;;;;;;;;;;;2195331;59;3077;-25
2023/11/14 01:03:52;;;;;;;;;;;;;;;;;;2201274;59;2767;-27
2023/11/14 01:06:23;;;;;;;;;;;;;;;;;;2196050;67;4107;-27
2023/11/14 01:08:53;;;;;;;;;;;;;;;;;;2195703;59;2338;-28
2023/11/14 01:11:23;;;;;;;;;;;;;;;;;;2195341;67;2994;-27
2023/11/14 01:13:54;;;;;;;;;;;;;;;;;;2194586;67;3035;-27
2023/11/14 01:16:24;;;;;;;;;;;;;;;;;;2194091;59;2418;-25
2023/11/14 01:18:54;;;;;;;;;;;;;;;;;;2193263;67;3990;-27
2023/11/14 01:21:25;;;;;;;;;;;;;;;;;;2190244;59;2307;-27
2023/11/14 01:23:55;;;;;;;;;;;;;;;;;;2192825;67;2883;-26
2023/11/14 01:26:31;;;;;;;;;;;;;;;;;;2192924;67;2360;-26
2023/11/14 01:29:01;;;;;;;;;;;;;;;;;;2193094;59;2357;-26
2023/11/14 01:31:31;;;;;;;;;;;;;;;;;;2193051;59;3012;-24
2023/11/14 01:34:02;;;;;;;;;;;;;;;;;;2192842;67;4261;-24
2023/11/14 01:36:32;;;;;;;;;;;;;;;;;;2193420;59;1790;-25
2023/11/14 01:39:03;;;;;;;;;;;;;;;;;;2192728;59;2073;-24
2023/11/14 01:41:33;;;;;;;;;;;;;;;;;;2195664;67;2569;-24
2023/11/14 01:44:04;;;;;;;;;;;;;;;;;;2197920;59;2175;-24
2023/11/14 01:46:34;;;;;;;;;;;;;;;;;;2193627;67;2790;-24
2023/11/14 01:49:04;;;;;;;;;;;;;;;;;;2193347;67;2032;-25
2023/11/14 01:51:35;;;;;;;;;;;;;;;;;;2192999;67;2131;-24
2023/11/14 01:54:06;;;;;;;;;;;;;;;;;;2193015;67;1877;-24
2023/11/14 01:56:36;;;;;;;;;;;;;;;;;;2194907;67;2409;-24
2023/11/14 01:59:07;;;;;;;;;;;;;;;;;;2198172;67;2105;-24
2023/11/14 02:01:37;;;;;;;;;;;;;;;;;;2198687;67;2063;-25
2023/11/14 02:04:12;;;;;;;;;;;;;;;;;;2192292;59;2441;-25
2023/11/14 02:06:43;;;;;;;;;;;;;;;;;;2193304;59;4174;-25
2023/11/14 02:09:13;;;;;;;;;;;;;;;;;;2192634;67;2035;-25
2023/11/14 02:11:46;;;;;;;;;;;;;;;;;;2198788;59;3703;-26
2023/11/14 02:14:16;;;;;;;;;;;;;;;;;;2191872;67;4157;-26
2023/11/14 02:16:47;;;;;;;;;;;;;;;;;;2192912;67;3988;-26
2023/11/14 02:19:17;;;;;;;;;;;;;;;;;;2193227;67;2572;-26
2023/11/14 02:21:48;;;;;;;;;;;;;;;;;;2193846;59;3268;-26
2023/11/14 02:24:19;;;;;;;;;;;;;;;;;;2198494;67;2461;-26
2023/11/14 02:26:50;;;;;;;;;;;;;;;;;;2190023;59;2919;-26
2023/11/14 02:29:21;;;;;;;;;;;;;;;;;;2193350;59;3003;-26
2023/11/14 02:31:51;;;;;;;;;;;;;;;;;;2195960;59;2000;-25
2023/11/14 02:34:21;;;;;;;;;;;;;;;;;;2193297;67;2642;-25
2023/11/14 02:36:51;;;;;;;;;;;;;;;;;;2193621;59;3414;-26
2023/11/14 02:39:22;;;;;;;;;;;;;;;;;;2190675;59;2563;-26
2023/11/14 02:41:52;;;;;;;;;;;;;;;;;;2193484;59;2853;-29
2023/11/14 02:44:22;;;;;;;;;;;;;;;;;;2193096;67;2177;-25
2023/11/14 02:46:53;;;;;;;;;;;;;;;;;;2193963;67;2715;-25
2023/11/14 02:49:42;;;;;;;;;;;;;;;;;;2193036;67;2663;-26
2023/11/14 02:52:12;;;;;;;;;;;;;;;;;;2193361;59;3551;-26
2023/11/14 02:54:43;;;;;;;;;;;;;;;;;;2193853;67;2578;-28
2023/11/14 02:57:13;;;;;;;;;;;;;;;;;;2193257;67;4532;-28
2023/11/14 02:59:44;;;;;;;;;;;;;;;;;;2193480;59;4162;-28
2023/11/14 03:02:14;;;;;;;;;;;;;;;;;;2192956;59;3035;-28
2023/11/14 03:04:44;;;;;;;;;;;;;;;;;;2193000;67;3294;-28
2023/11/14 03:07:14;;;;;;;;;;;;;;;;;;2192499;67;2018;-28
2023/11/14 03:09:45;;;;;;;;;;;;;;;;;;2194148;59;2169;-28
2023/11/14 03:12:16;;;;;;;;;;;;;;;;;;2193394;67;2401;-28
2023/11/14 03:14:46;;;;;;;;;;;;;;;;;;2193799;67;2152;-26
2023/11/14 03:17:17;;;;;;;;;;;;;;;;;;2192537;67;3186;-26
2023/11/14 03:19:47;;;;;;;;;;;;;;;;;;2193885;67;2553;-26
2023/11/14 03:22:17;;;;;;;;;;;;;;;;;;2192664;59;2645;-28
2023/11/14 03:24:47;;;;;;;;;;;;;;;;;;2193188;67;2109;-28
2023/11/14 03:27:18;;;;;;;;;;;;;;;;;;2193016;59;1785;-26
2023/11/14 03:29:48;;;;;;;;;;;;;;;;;;2199432;59;3236;-26
2023/11/14 03:32:18;;;;;;;;;;;;;;;;;;2193241;59;3448;-26
2023/11/14 03:34:48;;;;;;;;;;;;;;;;;;2199233;67;1978;-26
2023/11/14 03:37:19;;;;;;;;;;;;;;;;;;2191997;59;2059;-26
2023/11/14 03:39:49;;;;;;;;;;;;;;;;;;2193085;59;3454;-26
2023/11/14 03:42:19;;;;;;;;;;;;;;;;;;2198475;59;1918;-26
2023/11/14 03:44:49;;;;;;;;;;;;;;;;;;2193490;59;2559;-26
2023/11/14 03:47:20;;;;;;;;;;;;;;;;;;2192868;67;2591;-26
2023/11/14 03:49:50;;;;;;;;;;;;;;;;;;2194369;67;2018;-26
2023/11/14 03:52:20;;;;;;;;;;;;;;;;;;2198534;59;1999;-26
2023/11/14 03:54:51;;;;;;;;;;;;;;;;;;2193860;67;2229;-26
2023/11/14 03:57:21;;;;;;;;;;;;;;;;;;2193191;67;3559;-26
2023/11/14 03:59:51;;;;;;;;;;;;;;;;;;2194015;67;1775;-26
2023/11/14 04:02:21;;;;;;;;;;;;;;;;;;2192815;59;3755;-26
2023/11/14 04:04:52;;;;;;;;;;;;;;;;;;2199079;67;1826;-26
2023/11/14 04:07:23;;;;;;;;;;;;;;;;;;2193026;67;2719;-26
2023/11/14 04:09:53;;;;;;;;;;;;;;;;;;2193851;67;1964;-26
2023/11/14 04:12:24;;;;;;;;;;;;;;;;;;2192666;67;2238;-26
2023/11/14 04:14:54;;;;;;;;;;;;;;;;;;2193617;67;2390;-26
2023/11/14 04:17:25;;;;;;;;;;;;;;;;;;2193306;67;3134;-26
2023/11/14 04:19:55;;;;;;;;;;;;;;;;;;2198774;67;3515;-26
2023/11/14 04:22:25;;;;;;;;;;;;;;;;;;2192903;59;2450;-26
2023/11/14 04:24:57;;;;;;;;;;;;;;;;;;2198876;67;2314;-26
2023/11/14 04:27:27;;;;;;;;;;;;;;;;;;2192236;59;4171;-26
2023/11/14 04:29:57;;;;;;;;;;;;;;;;;;2196281;59;2461;-26
2023/11/14 04:32:27;;;;;;;;;;;;;;;;;;2193355;59;2040;-27
2023/11/14 04:34:57;;;;;;;;;;;;;;;;;;2193807;67;2588;-26
2023/11/14 04:37:28;;;;;;;;;;;;;;;;;;2198700;59;3461;-26
2023/11/14 04:39:58;;;;;;;;;;;;;;;;;;2193098;59;2356;-27
2023/11/14 04:42:28;;;;;;;;;;;;;;;;;;2198954;67;2631;-26
2023/11/14 04:44:59;;;;;;;;;;;;;;;;;;2192346;59;3027;-26
2023/11/14 04:47:29;;;;;;;;;;;;;;;;;;2193433;67;4316;-26
2023/11/14 04:49:59;;;;;;;;;;;;;;;;;;2192662;67;2395;-26
2023/11/14 04:52:29;;;;;;;;;;;;;;;;;;2193459;67;3318;-26
2023/11/14 04:55:00;;;;;;;;;;;;;;;;;;2198560;59;3476;-26
2023/11/14 04:57:31;;;;;;;;;;;;;;;;;;2193600;67;2562;-26
2023/11/14 05:00:04;;;;;;;;;;;;;;;;;;2193118;67;2110;-27
2023/11/14 05:02:35;;;;;;;;;;;;;;;;;;2192835;59;2503;-26
2023/11/14 05:05:05;;;;;;;;;;;;;;;;;;2193054;67;2038;-26
2023/11/14 05:07:35;;;;;;;;;;;;;;;;;;2192955;59;1957;-26
2023/11/14 05:10:06;;;;;;;;;;;;;;;;;;2192546;67;2792;-26
2023/11/14 05:12:36;;;;;;;;;;;;;;;;;;2193047;67;2621;-26
2023/11/14 05:15:07;;;;;;;;;;;;;;;;;;2192852;67;3798;-26
2023/11/14 05:17:38;;;;;;;;;;;;;;;;;;2199439;67;3239;-26
2023/11/14 05:20:10;;;;;;;;;;;;;;;;;;2192273;67;2408;-26
2023/11/14 05:22:40;;;;;;;;;;;;;;;;;;2193361;59;2685;-26
2023/11/14 05:25:10;;;;;;;;;;;;;;;;;;2192486;67;3244;-26
2023/11/14 05:27:40;;;;;;;;;;;;;;;;;;2193632;59;2077;-26
2023/11/14 05:30:12;;;;;;;;;;;;;;;;;;2192447;59;3426;-26
2023/11/14 05:32:42;;;;;;;;;;;;;;;;;;2193450;59;3864;-28
2023/11/14 05:35:12;;;;;;;;;;;;;;;;;;2194908;67;1911;-26
2023/11/14 05:37:44;;;;;;;;;;;;;;;;;;2199086;59;2340;-26
2023/11/14 05:40:15;;;;;;;;;;;;;;;;;;2193041;59;4329;-26
2023/11/14 05:42:45;;;;;;;;;;;;;;;;;;2193404;67;2511;-28
2023/11/14 05:45:16;;;;;;;;;;;;;;;;;;2192828;59;3142;-26
2023/11/14 05:47:46;;;;;;;;;;;;;;;;;;2193418;67;1885;-26
2023/11/14 05:50:17;;;;;;;;;;;;;;;;;;2192819;67;4013;-26
2023/11/14 05:52:47;;;;;;;;;;;;;;;;;;2193526;67;2015;-26
2023/11/14 05:55:17;;;;;;;;;;;;;;;;;;2192710;59;2891;-26
2023/11/14 05:57:47;;;;;;;;;;;;;;;;;;2194031;67;2118;-26
2023/11/14 06:00:18;;;;;;;;;;;;;;;;;;2192899;67;3396;-26
2023/11/14 06:02:48;;;;;;;;;;;;;;;;;;2193255;59;4177;-26
2023/11/14 06:05:18;;;;;;;;;;;;;;;;;;2192048;67;3071;-25
2023/11/14 06:07:48;;;;;;;;;;;;;;;;;;2193019;59;3717;-28
2023/11/14 06:10:19;;;;;;;;;;;;;;;;;;2192549;67;3064;-26
2023/11/14 06:12:49;;;;;;;;;;;;;;;;;;2192666;67;4106;-26
2023/11/14 06:15:19;;;;;;;;;;;;;;;;;;2192522;67;2837;-26
2023/11/14 06:17:50;;;;;;;;;;;;;;;;;;2193289;67;1999;-26
2023/11/14 06:20:22;;;;;;;;;;;;;;;;;;2193216;67;1945;-26
2023/11/14 06:25:32;;;;;;;;;;;;;;;;;;2196269;59;2797;-20
2023/11/14 06:28:03;;;;;;;;;;;;;;;;;;2199543;59;3549;-20
2023/11/14 06:30:35;;;;;;;;;;;;;;;;;;2199937;59;3483;-20
2023/11/14 06:33:06;;;;;;;;;;;;;;;;;;2200123;59;3203;-20
2023/11/14 06:35:36;;;;;;;;;;;;;;;;;;2199696;59;2352;-20
2023/11/14 06:38:06;;;;;;;;;;;;;;;;;;2199205;67;1983;-20
2023/11/14 06:40:38;;;;;;;;;;;;;;;;;;2199340;59;2699;-20
2023/11/14 06:43:09;;;;;;;;;;;;;;;;;;2198995;67;2366;-23
2023/11/14 06:45:39;;;;;;;;;;;;;;;;;;2200115;59;2286;-23
2023/11/14 06:48:09;;;;;;;;;;;;;;;;;;2200084;67;2742;-22
2023/11/14 06:50:40;;;;;;;;;;;;;;;;;;2200247;67;2748;-22
2023/11/14 06:53:11;;;;;;;;;;;;;;;;;;2198791;59;3885;-22
2023/11/14 06:55:41;;;;;;;;;;;;;;;;;;2200241;59;1889;-22
2023/11/14 06:58:12;;;;;;;;;;;;;;;;;;2199391;67;3675;-22
2023/11/14 07:00:42;;;;;;;;;;;;;;;;;;2201012;67;1901;-22
2023/11/14 07:03:12;;;;;;;;;;;;;;;;;;2202157;59;3552;-24
2023/11/14 07:05:43;;;;;;;;;;;;;;;;;;2200820;59;3233;-22
2023/11/14 07:08:13;;;;;;;;;;;;;;;;;;2198710;59;2415;-22
2023/11/14 07:10:44;;;;;;;;;;;;;;;;;;2200955;59;3925;-22
2023/11/14 07:13:14;;;;;;;;;;;;;;;;;;2199772;59;3443;-22
2023/11/14 07:15:44;;;;;;;;;;;;;;;;;;2200034;67;2821;-22
2023/11/14 07:18:14;;;;;;;;;;;;;;;;;;2200082;59;3794;-22
2023/11/14 07:20:48;;;;;;;;;;;;;;;;;;2200704;59;2154;-19
2023/11/14 07:23:18;;;;;;;;;;;;;;;;;;2199255;59;2036;-19
2023/11/14 07:25:48;;;;;;;;;;;;;;;;;;2197461;59;2397;-19
2023/11/14 07:28:19;;;;;;;;;;;;;;;;;;2199453;59;2076;-19
2023/11/14 07:30:51;;;;;;;;;;;;;;;;;;2200848;67;2479;-19
2023/11/14 07:33:21;;;;;;;;;;;;;;;;;;2199829;59;2254;-19
2023/11/14 07:35:51;;;;;;;;;;;;;;;;;;2201109;59;1861;-19
2023/11/14 07:38:21;;;;;;;;;;;;;;;;;;2200429;59;1816;-19
2023/11/14 07:40:52;;;;;;;;;;;;;;;;;;2201248;59;2727;-19
2023/11/14 07:43:24;;;;;;;;;;;;;;;;;;2200140;59;2616;-19
2023/11/14 07:45:54;;;;;;;;;;;;;;;;;;2200134;59;2432;-19
2023/11/14 07:48:25;;;;;;;;;;;;;;;;;;2200239;59;3975;-19
2023/11/14 07:50:55;;;;;;;;;;;;;;;;;;2200441;59;3178;-19
2023/11/14 07:53:26;;;;;;;;;;;;;;;;;;2199614;59;1939;-19
2023/11/14 07:55:56;;;;;;;;;;;;;;;;;;2200411;67;1760;-19
2023/11/14 07:58:26;;;;;;;;;;;;;;;;;;2199851;67;4083;-19
2023/11/14 08:00:57;;;;;;;;;;;;;;;;;;2200867;67;1894;-19
2023/11/14 08:03:27;;;;;;;;;;;;;;;;;;2200167;59;2578;-19
2023/11/14 08:05:57;;;;;;;;;;;;;;;;;;2200834;59;2242;-19
2023/11/14 08:08:27;;;;;;;;;;;;;;;;;;2199900;67;3219;-19
2023/11/14 08:10:58;;;;;;;;;;;;;;;;;;2200824;60;1956;-20
2023/11/14 08:13:28;;;;;;;;;;;;;;;;;;2199084;59;2621;-19
2023/11/14 08:15:58;;;;;;;;;;;;;;;;;;2200612;67;1979;-19
2023/11/14 08:18:29;;;;;;;;;;;;;;;;;;2200219;67;3850;-20
2023/11/14 08:20:59;;;;;;;;;;;;;;;;;;2200689;59;3589;-19
2023/11/14 08:23:29;;;;;;;;;;;;;;;;;;2199781;59;1878;-19
2023/11/14 08:26:00;;;;;;;;;;;;;;;;;;2200591;59;2666;-19
2023/11/14 08:28:30;;;;;;;;;;;;;;;;;;2199417;59;2079;-19
2023/11/14 08:31:01;;;;;;;;;;;;;;;;;;2200205;59;2344;-19
2023/11/14 08:33:31;;;;;;;;;;;;;;;;;;2199565;59;2065;-19
2023/11/14 08:36:02;;;;;;;;;;;;;;;;;;2200371;59;2547;-19
2023/11/14 08:38:34;;;;;;;;;;;;;;;;;;2199046;59;2628;-19
2023/11/14 08:41:05;;;;;;;;;;;;;;;;;;2200660;59;1743;-19
2023/11/14 08:43:35;;;;;;;;;;;;;;;;;;2198202;59;3107;-19
2023/11/14 08:46:06;;;;;;;;;;;;;;;;;;2200231;59;2143;-19
2023/11/14 08:48:36;;;;;;;;;;;;;;;;;;2199146;59;2518;-19
2023/11/14 08:51:06;;;;;;;;;;;;;;;;;;2199611;59;3321;-19
2023/11/14 08:53:37;;;;;;;;;;;;;;;;;;2199372;59;3401;-19
2023/11/14 08:56:07;;;;;;;;;;;;;;;;;;2200089;59;2248;-19
2023/11/14 08:58:37;;;;;;;;;;;;;;;;;;2199983;59;2406;-19
2023/11/14 09:01:08;;;;;;;;;;;;;;;;;;2200352;59;3125;-19
2023/11/14 09:03:38;;;;;;;;;;;;;;;;;;2197524;59;3757;-19
2023/11/14 09:06:09;;;;;;;;;;;;;;;;;;2200244;59;2779;-19
2023/11/14 09:08:39;;;;;;;;;;;;;;;;;;2198981;59;2440;-19
2023/11/14 09:11:09;;;;;;;;;;;;;;;;;;2200373;59;1577;-19
2023/11/14 09:13:40;;;;;;;;;;;;;;;;;;2199516;59;1941;-19
2023/11/14 09:16:10;;;;;;;;;;;;;;;;;;2200065;59;2339;-19
2023/11/14 09:18:40;;;;;;;;;;;;;;;;;;2198087;59;2271;-19
2023/11/14 09:21:11;;;;;;;;;;;;;;;;;;2199274;59;2949;-20
2023/11/14 09:23:41;;;;;;;;;;;;;;;;;;2198924;59;2619;-19
2023/11/14 09:26:13;;;;;;;;;;;;;;;;;;2198955;59;2768;-19
2023/11/14 09:28:43;;;;;;;;;;;;;;;;;;2201131;59;2258;-19
2023/11/14 09:31:14;;;;;;;;;;;;;;;;;;2199170;59;2942;-19
2023/11/14 09:33:46;;;;;;;;;;;;;;;;;;2199616;59;2179;-19
2023/11/14 09:36:16;;;;;;;;;;;;;;;;;;2198954;59;1946;-19
2023/11/14 09:38:47;;;;;;;;;;;;;;;;;;2200355;59;3792;-19
2023/11/14 09:41:19;;;;;;;;;;;;;;;;;;2199797;59;3005;-19
2023/11/14 09:43:49;;;;;;;;;;;;;;;;;;2200063;59;2713;-19
2023/11/14 09:46:19;;;;;;;;;;;;;;;;;;2199039;59;3008;-19
2023/11/14 09:48:50;;;;;;;;;;;;;;;;;;2200575;67;1797;-19
2023/11/14 09:51:20;;;;;;;;;;;;;;;;;;2199784;59;1888;-19
2023/11/14 09:53:51;;;;;;;;;;;;;;;;;;2200000;59;4170;-19
2023/11/14 09:56:22;;;;;;;;;;;;;;;;;;2199083;59;3627;-19
2023/11/14 09:58:53;;;;;;;;;;;;;;;;;;2199301;59;2819;-19
2023/11/14 10:01:23;;;;;;;;;;;;;;;;;;2198864;59;2712;-19
2023/11/14 10:03:53;;;;;;;;;;;;;;;;;;2200460;59;2356;-19
2023/11/14 10:06:24;;;;;;;;;;;;;;;;;;2199762;67;2722;-19
2023/11/14 10:08:56;;;;;;;;;;;;;;;;;;2199630;67;2498;-19
2023/11/14 10:11:39;;;;;;;;;;;;;;;;;;2198417;59;3487;-19
2023/11/14 10:14:09;;;;;;;;;;;;;;;;;;2199835;59;2313;-19
2023/11/14 10:16:40;;;;;;;;;;;;;;;;;;2199456;67;2806;-19
2023/11/14 10:19:14;;;;;;;;;;;;;;;;;;2201020;67;2123;-20
2023/11/14 10:21:45;;;;;;;;;;;;;;;;;;2199220;59;2463;-19
2023/11/14 10:24:15;;;;;;;;;;;;;;;;;;2199450;59;2363;-19
2023/11/14 10:26:50;;;;;;;;;;;;;;;;;;2199544;67;2544;-19
2023/11/14 10:29:21;;;;;;;;;;;;;;;;;;2199521;59;2271;-19
2023/11/14 10:31:52;;;;;;;;;;;;;;;;;;2200771;59;2457;-19
2023/11/14 10:34:26;;;;;;;;;;;;;;;;;;2198397;59;1889;-19
2023/11/14 10:36:58;;;;;;;;;;;;;;;;;;2200791;59;1887;-19
2023/11/14 10:39:29;;;;;;;;;;;;;;;;;;2200147;59;2322;-19
2023/11/14 10:42:06;;;;;;;;;;;;;;;;;;2200393;59;2754;-19
2023/11/14 10:44:36;;;;;;;;;;;;;;;;;;2199043;59;2681;-19
2023/11/14 10:47:07;;;;;;;;;;;;;;;;;;2201371;67;1245;-21
2023/11/14 10:49:43;;;;;;;;;;;;;;;;;;2201243;67;2004;-21
2023/11/14 10:52:14;;;;;;;;;;;;;;;;;;2198067;67;1932;-21
2023/11/14 10:54:46;;;;;;;;;;;;;;;;;;2200438;67;1247;-21
2023/11/14 10:57:17;;;;;;;;;;;;;;;;;;2202110;67;1517;-21
2023/11/14 10:59:48;;;;;;;;;;;;;;;;;;2200839;67;1329;-21
2023/11/14 11:02:19;;;;;;;;;;;;;;;;;;2200849;59;2347;-21
2023/11/14 11:04:50;;;;;;;;;;;;;;;;;;2200666;67;1391;-21
2023/11/14 11:07:20;;;;;;;;;;;;;;;;;;2202829;67;1210;-21
2023/11/14 11:09:51;;;;;;;;;;;;;;;;;;2201305;67;2867;-21
2023/11/14 11:12:23;;;;;;;;;;;;;;;;;;2199807;67;1939;-21
2023/11/14 11:14:54;;;;;;;;;;;;;;;;;;2201523;67;1421;-23
2023/11/14 11:17:40;;;;;;;;;;;;;;;;;;2200535;67;1939;-21
2023/11/14 11:20:32;;;;;;;;;;;;;;;;;;2201637;67;1521;-21
2023/11/14 11:23:03;;;;;;;;;;;;;;;;;;2201009;59;1819;-21
2023/11/14 11:25:37;;;;;;;;;;;;;;;;;;2200820;67;1122;-21
2023/11/14 11:28:27;;;;;;;;;;;;;;;;;;2200627;59;2049;-21
2023/11/14 11:31:14;;;;;;;;;;;;;;;;;;2202776;67;2449;-21
2023/11/14 11:33:44;;;;;;;;;;;;;;;;;;2200351;59;2028;-21
2023/11/14 11:36:21;;;;;;;;;;;;;;;;;;2201129;59;1306;-21
2023/11/14 11:38:52;;;;;;;;;;;;;;;;;;2200748;59;1290;-21
2023/11/14 11:41:23;;;;;;;;;;;;;;;;;;2201098;59;1328;-21
2023/11/14 11:44:00;;;;;;;;;;;;;;;;;;2202179;59;2336;-21
2023/11/14 11:46:34;;;;;;;;;;;;;;;;;;2200642;59;1814;-21
2023/11/14 11:49:10;;;;;;;;;;;;;;;;;;2201210;67;1314;-21
2023/11/14 11:51:43;;;;;;;;;;;;;;;;;;2200972;59;1268;-21
2023/11/14 11:54:26;;;;;;;;;;;;;;;;;;2202497;67;1819;-21
2023/11/14 11:57:12;;;;;;;;;;;;;;;;;;2202814;67;1201;-21
2023/11/14 11:59:43;;;;;;;;;;;;;;;;;;2200655;59;2263;-21
2023/11/14 12:02:14;;;;;;;;;;;;;;;;;;2200763;59;2320;-20
2023/11/14 12:04:45;;;;;;;;;;;;;;;;;;2199856;67;1342;-20
2023/11/14 12:07:16;;;;;;;;;;;;;;;;;;2200887;59;1380;-21
2023/11/14 12:09:46;;;;;;;;;;;;;;;;;;2200567;67;1425;-21
2023/11/14 12:12:17;;;;;;;;;;;;;;;;;;2201945;67;1983;-21
2023/11/14 12:14:47;;;;;;;;;;;;;;;;;;2199897;67;1459;-21
2023/11/14 12:17:18;;;;;;;;;;;;;;;;;;2200517;67;1373;-22
2023/11/14 12:19:48;;;;;;;;;;;;;;;;;;2200373;67;1359;-22
2023/11/14 12:22:19;;;;;;;;;;;;;;;;;;2201291;67;1267;-22
2023/11/14 12:24:50;;;;;;;;;;;;;;;;;;2202972;53;2265;-25
2023/11/14 12:27:20;;;;;;;;;;;;;;;;;;2195336;59;2312;-25
2023/11/14 12:30:09;;;;;;;;;;;;;;;;;;2195094;59;3179;-25
2023/11/14 12:32:40;;;;;;;;;;;;;;;;;;2195816;59;1934;-25
2023/11/14 12:35:10;;;;;;;;;;;;;;;;;;2195139;67;2311;-25
2023/11/14 12:37:47;;;;;;;;;;;;;;;;;;2191489;67;2390;-25
2023/11/14 12:40:19;;;;;;;;;;;;;;;;;;2191980;59;3430;-24
2023/11/14 12:42:49;;;;;;;;;;;;;;;;;;2191005;67;3805;-24
2023/11/14 12:45:19;;;;;;;;;;;;;;;;;;2191195;59;3758;-24
2023/11/14 12:47:50;;;;;;;;;;;;;;;;;;2191416;60;2451;-24
2023/11/14 12:50:23;;;;;;;;;;;;;;;;;;2192000;59;2009;-25
2023/11/14 12:52:53;;;;;;;;;;;;;;;;;;2191246;67;3404;-25
2023/11/14 12:55:24;;;;;;;;;;;;;;;;;;2191526;62;1972;-25
2023/11/14 12:57:54;;;;;;;;;;;;;;;;;;2192159;67;3110;-25
2023/11/14 13:00:24;;;;;;;;;;;;;;;;;;2191936;67;3707;-26
2023/11/14 13:02:54;;;;;;;;;;;;;;;;;;2191848;59;5010;-25
2023/11/14 13:05:24;;;;;;;;;;;;;;;;;;2191917;67;2262;-25
2023/11/14 13:07:55;;;;;;;;;;;;;;;;;;2191670;59;3897;-25
2023/11/14 13:10:26;;;;;;;;;;;;;;;;;;2191480;67;2253;-25
2023/11/14 13:12:56;;;;;;;;;;;;;;;;;;2191865;67;2113;-26
2023/11/14 13:15:26;;;;;;;;;;;;;;;;;;2191759;67;2419;-26
2023/11/14 13:17:56;;;;;;;;;;;;;;;;;;2192362;67;2003;-26
2023/11/14 13:20:27;;;;;;;;;;;;;;;;;;2188471;67;3275;-26
2023/11/14 13:22:57;;;;;;;;;;;;;;;;;;2192112;67;5065;-26
2023/11/14 13:25:27;;;;;;;;;;;;;;;;;;2190759;59;2379;-26
2023/11/14 13:27:58;;;;;;;;;;;;;;;;;;2192337;59;2033;-26
2023/11/14 13:30:28;;;;;;;;;;;;;;;;;;2191936;59;3735;-26
2023/11/14 13:32:58;;;;;;;;;;;;;;;;;;2191710;63;2009;-26
2023/11/14 13:35:28;;;;;;;;;;;;;;;;;;2191255;59;2681;-26
2023/11/14 13:37:59;;;;;;;;;;;;;;;;;;2191846;67;1891;-26
2023/11/14 13:40:29;;;;;;;;;;;;;;;;;;2191753;59;2434;-26
2023/11/14 13:42:59;;;;;;;;;;;;;;;;;;2191951;59;3125;-26
2023/11/14 13:45:30;;;;;;;;;;;;;;;;;;2191518;59;2778;-26
2023/11/14 13:48:02;;;;;;;;;;;;;;;;;;2192342;67;2767;-26
2023/11/14 13:50:32;;;;;;;;;;;;;;;;;;2191019;67;3829;-27
2023/11/14 13:53:04;;;;;;;;;;;;;;;;;;2189527;67;2506;-26
2023/11/14 13:55:34;;;;;;;;;;;;;;;;;;2190652;67;4189;-27
2023/11/14 13:58:05;;;;;;;;;;;;;;;;;;2192854;67;2984;-26
2023/11/14 14:00:35;;;;;;;;;;;;;;;;;;2191162;67;2382;-26
2023/11/14 14:03:05;;;;;;;;;;;;;;;;;;2191463;59;3819;-26
2023/11/14 14:05:36;;;;;;;;;;;;;;;;;;2190458;59;2048;-26
2023/11/14 14:08:06;;;;;;;;;;;;;;;;;;2192156;67;3012;-26
2023/11/14 14:10:38;;;;;;;;;;;;;;;;;;2191636;67;2395;-26
2023/11/14 14:13:08;;;;;;;;;;;;;;;;;;2192232;67;3741;-26
2023/11/14 14:15:39;;;;;;;;;;;;;;;;;;2189696;59;3105;-26
2023/11/14 14:18:11;;;;;;;;;;;;;;;;;;2191822;59;2065;-26
2023/11/14 14:20:43;;;;;;;;;;;;;;;;;;2189287;67;1976;-27
2023/11/14 14:23:15;;;;;;;;;;;;;;;;;;2193024;60;2856;-26
2023/11/14 14:25:46;;;;;;;;;;;;;;;;;;2191121;59;2204;-27
2023/11/14 14:28:20;;;;;;;;;;;;;;;;;;2192766;59;3049;-27
2023/11/14 14:30:50;;;;;;;;;;;;;;;;;;2192200;59;2353;-28
2023/11/14 14:33:20;;;;;;;;;;;;;;;;;;2192152;59;2008;-28
2023/11/14 14:35:52;;;;;;;;;;;;;;;;;;2191745;59;4065;-28
2023/11/14 14:38:22;;;;;;;;;;;;;;;;;;2191952;67;2559;-28
2023/11/14 14:40:52;;;;;;;;;;;;;;;;;;2189601;59;2489;-28
2023/11/14 14:43:23;;;;;;;;;;;;;;;;;;2191661;59;2455;-28
2023/11/14 14:45:53;;;;;;;;;;;;;;;;;;2191340;67;2196;-29
2023/11/14 14:48:23;;;;;;;;;;;;;;;;;;2191305;67;4532;-28
2023/11/14 14:50:54;;;;;;;;;;;;;;;;;;2190878;59;3020;-28
2023/11/14 14:53:24;;;;;;;;;;;;;;;;;;2187983;59;3677;-28
2023/11/14 14:55:54;;;;;;;;;;;;;;;;;;2190712;59;3796;-28
2023/11/14 14:58:25;;;;;;;;;;;;;;;;;;2190418;67;1894;-28
2023/11/14 15:00:55;;;;;;;;;;;;;;;;;;2191984;59;2417;-28
2023/11/14 15:03:25;;;;;;;;;;;;;;;;;;2191900;59;4074;-28
2023/11/14 15:05:59;;;;;;;;;;;;;;;;;;2190874;67;2305;-28
2023/11/14 15:08:29;;;;;;;;;;;;;;;;;;2192314;67;2185;-29
2023/11/14 15:11:00;;;;;;;;;;;;;;;;;;2191064;67;3695;-28
2023/11/14 15:13:31;;;;;;;;;;;;;;;;;;2191495;59;3657;-29
2023/11/14 15:16:01;;;;;;;;;;;;;;;;;;2191850;59;2863;-28
2023/11/14 15:18:31;;;;;;;;;;;;;;;;;;2191573;67;1981;-28
2023/11/14 15:21:01;;;;;;;;;;;;;;;;;;2191274;59;3409;-28
2023/11/14 15:23:32;;;;;;;;;;;;;;;;;;2191050;59;2060;-28
2023/11/14 15:26:02;;;;;;;;;;;;;;;;;;2191957;59;2525;-28
2023/11/14 15:28:32;;;;;;;;;;;;;;;;;;2192405;59;2452;-29
2023/11/14 15:31:03;;;;;;;;;;;;;;;;;;2192164;59;3354;-28
2023/11/14 15:33:34;;;;;;;;;;;;;;;;;;2192986;59;3566;-28
2023/11/14 15:36:05;;;;;;;;;;;;;;;;;;2193376;59;2419;-28
2023/11/14 15:38:36;;;;;;;;;;;;;;;;;;2191576;59;2365;-28
2023/11/14 15:41:06;;;;;;;;;;;;;;;;;;2192718;59;2423;-28
2023/11/14 15:43:36;;;;;;;;;;;;;;;;;;2190624;59;2241;-28
2023/11/14 15:46:06;;;;;;;;;;;;;;;;;;2191842;67;1954;-28
2023/11/14 15:48:36;;;;;;;;;;;;;;;;;;2187714;67;2378;-29
2023/11/14 15:51:07;;;;;;;;;;;;;;;;;;2192286;59;1981;-28
2023/11/14 15:53:37;;;;;;;;;;;;;;;;;;2190320;67;2676;-28
2023/11/14 15:56:10;;;;;;;;;;;;;;;;;;2191906;67;2293;-28
2023/11/14 15:58:43;;;;;;;;;;;;;;;;;;2190545;59;3081;-28
2023/11/14 16:01:14;;;;;;;;;;;;;;;;;;2192294;59;2508;-28
2023/11/14 16:03:44;;;;;;;;;;;;;;;;;;2190739;59;5614;-28
2023/11/14 16:06:15;;;;;;;;;;;;;;;;;;2192531;67;2434;-28
2023/11/14 16:08:45;;;;;;;;;;;;;;;;;;2190735;67;3096;-28
2023/11/14 16:11:16;;;;;;;;;;;;;;;;;;2192488;59;2607;-28
2023/11/14 16:13:46;;;;;;;;;;;;;;;;;;2190400;59;2290;-28
2023/11/14 16:16:16;;;;;;;;;;;;;;;;;;2192626;59;2453;-28
2023/11/14 16:18:46;;;;;;;;;;;;;;;;;;2185528;59;4628;-28
2023/11/14 16:21:17;;;;;;;;;;;;;;;;;;2194297;67;2256;-28
2023/11/14 16:23:47;;;;;;;;;;;;;;;;;;2191471;67;2701;-27
2023/11/14 16:26:17;;;;;;;;;;;;;;;;;;2189304;59;2119;-27
2023/11/14 16:28:48;;;;;;;;;;;;;;;;;;2191288;59;4216;-28
2023/11/14 16:31:18;;;;;;;;;;;;;;;;;;2193164;67;2005;-28
2023/11/14 16:33:48;;;;;;;;;;;;;;;;;;2190854;59;2759;-27
2023/11/14 16:36:18;;;;;;;;;;;;;;;;;;2191614;59;2064;-27
2023/11/14 16:38:49;;;;;;;;;;;;;;;;;;2189980;59;4316;-27
2023/11/14 16:41:19;;;;;;;;;;;;;;;;;;2191933;59;2663;-28
2023/11/14 16:43:49;;;;;;;;;;;;;;;;;;2189775;59;3379;-27
2023/11/14 16:46:20;;;;;;;;;;;;;;;;;;2191392;67;1862;-28
2023/11/14 16:48:50;;;;;;;;;;;;;;;;;;2189674;67;3689;-28
2023/11/14 16:51:21;;;;;;;;;;;;;;;;;;2191082;67;2030;-28
2023/11/14 16:53:51;;;;;;;;;;;;;;;;;;2189358;67;3101;-28
2023/11/14 16:56:21;;;;;;;;;;;;;;;;;;2191368;67;4259;-28
2023/11/14 16:58:52;;;;;;;;;;;;;;;;;;2191596;67;2787;-28
2023/11/14 17:01:22;;;;;;;;;;;;;;;;;;2191198;67;3420;-28
2023/11/14 17:03:54;;;;;;;;;;;;;;;;;;2191433;59;3678;-28
2023/11/14 17:06:24;;;;;;;;;;;;;;;;;;2191833;67;3276;-28
2023/11/14 17:08:54;;;;;;;;;;;;;;;;;;2190176;67;5345;-28
2023/11/14 17:11:24;;;;;;;;;;;;;;;;;;2189543;59;2846;-28
2023/11/14 17:13:55;;;;;;;;;;;;;;;;;;2189659;59;2213;-28
2023/11/14 17:16:25;;;;;;;;;;;;;;;;;;2189899;59;2638;-29
2023/11/14 17:18:55;;;;;;;;;;;;;;;;;;2189760;67;1908;-28
2023/11/14 17:21:27;;;;;;;;;;;;;;;;;;2191674;67;4367;-29
2023/11/14 17:23:58;;;;;;;;;;;;;;;;;;2190810;67;2763;-28
2023/11/14 17:26:28;;;;;;;;;;;;;;;;;;2192158;59;3005;-27
2023/11/14 17:28:59;;;;;;;;;;;;;;;;;;2191078;59;3737;-27
2023/11/14 17:31:30;;;;;;;;;;;;;;;;;;2191386;59;3548;-26